createdAt,value
2022-08-11T00:01:24.625Z,100008.84
2022-08-11T00:06:37.493Z,99985.25
2022-08-11T00:11:44.766Z,99991.19
2022-08-11T00:17:02.422Z,99990.81
2022-08-11T00:22:06.523Z,99990.38
2022-08-11T00:27:09.492Z,99987.03
2022-08-11T00:32:17.515Z,99986.81
2022-08-11T00:37:22.625Z,99992.50
2022-08-11T00:43:00.295Z,99995.50
2022-08-11T00:48:16.013Z,99997.44
2022-08-11T00:53:47.272Z,100004.59
2022-08-11T00:59:26.419Z,99984.78
2022-08-11T01:05:04.620Z,99996.06
2022-08-11T01:10:45.111Z,99996.09
2022-08-11T01:16:09.675Z,99997.34
2022-08-11T01:21:43.095Z,99999.50
2022-08-11T01:27:00.633Z,99996.34
2022-08-11T01:32:25.207Z,100009.31
2022-08-11T01:37:43.398Z,100016.06
2022-08-11T01:43:21.017Z,100004.00
2022-08-11T01:48:43.042Z,100011.59
2022-08-11T01:53:51.723Z,100007.97
2022-08-11T01:59:19.249Z,100006.88
2022-08-11T02:04:44.080Z,100002.97
2022-08-11T02:09:55.785Z,99990.34
2022-08-11T02:15:11.412Z,100005.00
2022-08-11T02:21:16.982Z,100003.63
2022-08-11T02:26:35.421Z,100000.84
2022-08-11T02:32:11.076Z,100007.75
2022-08-11T02:37:27.626Z,100007.50
2022-08-11T02:42:45.874Z,100010.91
2022-08-11T02:48:24.813Z,100012.69
2022-08-11T02:53:37.898Z,100010.50
2022-08-11T02:59:47.635Z,100020.47
2022-08-11T03:05:07.689Z,100020.75
2022-08-11T03:10:40.601Z,100023.72
2022-08-11T03:16:11.238Z,100021.41
2022-08-11T03:22:01.124Z,100024.25
2022-08-11T03:26:55.351Z,100016.00
2022-08-11T03:32:03.239Z,100012.75
2022-08-11T03:37:43.095Z,100018.19
2022-08-11T03:42:59.097Z,100018.53
2022-08-11T03:48:21.702Z,100016.84
2022-08-11T03:53:48.941Z,100014.75
2022-08-11T03:59:13.154Z,100016.22
2022-08-11T04:04:37.511Z,100024.66
2022-08-11T04:10:11.097Z,100021.25
2022-08-11T04:15:51.150Z,100027.75
2022-08-11T04:21:30.604Z,100029.75
2022-08-11T04:26:55.202Z,100030.38
2022-08-11T04:32:01.004Z,100042.34
2022-08-11T04:37:36.001Z,100040.88
2022-08-11T04:43:21.575Z,100038.34
2022-08-11T04:49:12.476Z,100050.59
2022-08-11T04:55:08.031Z,100041.28
2022-08-11T05:00:33.246Z,100038.16
2022-08-11T05:05:56.340Z,100038.34
2022-08-11T05:11:21.581Z,100051.25
2022-08-11T05:16:48.574Z,100061.16
2022-08-11T05:22:15.176Z,100053.31
2022-08-11T05:27:38.981Z,100050.00
2022-08-11T05:33:02.655Z,100048.22
2022-08-11T05:38:30.457Z,100049.63
2022-08-11T05:44:20.512Z,100041.13
2022-08-11T05:49:34.399Z,100037.72
2022-08-11T05:54:55.586Z,100033.31
2022-08-11T06:00:10.757Z,100023.50
2022-08-11T06:05:14.555Z,100026.16
2022-08-11T06:10:30.575Z,100033.28
2022-08-11T06:15:35.434Z,100024.19
2022-08-11T06:20:48.109Z,100013.16
2022-08-11T06:25:56.389Z,100023.59
2022-08-11T06:31:00.041Z,100028.44
2022-08-11T06:36:17.607Z,100021.75
2022-08-11T06:41:49.674Z,100019.38
2022-08-11T06:46:55.081Z,100005.34
2022-08-11T06:52:04.559Z,100004.09
2022-08-11T06:57:31.079Z,99998.06
2022-08-11T07:03:01.162Z,99997.94
2022-08-11T07:08:36.058Z,99989.28
2022-08-11T07:13:58.386Z,99989.59
2022-08-11T07:19:25.563Z,99975.88
2022-08-11T07:25:12.283Z,99987.63
2022-08-11T07:30:15.140Z,99986.88
2022-08-11T07:35:28.864Z,99987.56
2022-08-11T07:40:32.045Z,99984.06
2022-08-11T07:45:53.151Z,99977.50
2022-08-11T07:51:14.369Z,99981.03
2022-08-11T07:56:21.899Z,99980.06
2022-08-11T08:02:01.566Z,99979.47
2022-08-11T08:07:24.304Z,99970.38
2022-08-11T08:12:45.905Z,99960.91
2022-08-11T08:18:09.106Z,99970.41
2022-08-11T08:23:33.914Z,99965.13
2022-08-11T08:28:37.094Z,99959.81
2022-08-11T08:33:41.567Z,99968.00
2022-08-11T08:38:50.831Z,99964.47
2022-08-11T08:44:05.943Z,99973.69
2022-08-11T08:49:24.321Z,99972.09
2022-08-11T08:54:37.853Z,99965.84
2022-08-11T08:59:48.920Z,99970.63
2022-08-11T09:04:52.755Z,99959.81
2022-08-11T09:09:58.128Z,99963.22
2022-08-11T09:15:01.240Z,99964.31
2022-08-11T09:20:13.820Z,99969.78
2022-08-11T09:25:35.436Z,99964.63
2022-08-11T09:30:43.105Z,99962.00
2022-08-11T09:35:47.429Z,99961.38
2022-08-11T09:40:52.926Z,99958.28
2022-08-11T09:46:01.352Z,99956.91
2022-08-11T09:51:04.860Z,99943.19
2022-08-11T09:56:37.566Z,99953.03
2022-08-11T10:02:03.687Z,99939.78
2022-08-11T10:07:10.057Z,99935.84
2022-08-11T10:12:17.544Z,99948.16
2022-08-11T10:17:21.553Z,99944.31
2022-08-11T10:22:43.233Z,99938.22
2022-08-11T10:28:28.865Z,99937.53
2022-08-11T10:33:37.960Z,99938.09
2022-08-11T10:38:47.195Z,99938.31
2022-08-11T10:44:01.122Z,99929.44
2022-08-11T10:49:07.084Z,99933.69
2022-08-11T10:54:28.690Z,99942.66
2022-08-11T10:59:34.656Z,99935.66
2022-08-11T11:04:53.793Z,99952.56
2022-08-11T11:10:04.046Z,99947.50
2022-08-11T11:15:25.993Z,99954.78
2022-08-11T11:20:35.866Z,99954.72
2022-08-11T11:26:06.978Z,99951.94
2022-08-11T11:32:03.717Z,99957.63
2022-08-11T11:37:06.787Z,99962.34
2022-08-11T11:42:11.337Z,99948.28
2022-08-11T11:47:14.826Z,99949.34
2022-08-11T11:52:20.173Z,99950.47
2022-08-11T11:57:41.683Z,99944.31
2022-08-11T12:03:11.140Z,99950.03
2022-08-11T12:08:17.821Z,99956.84
2022-08-11T12:13:41.392Z,99973.63
2022-08-11T12:18:48.255Z,99969.09
2022-08-11T12:24:15.290Z,99971.88
2022-08-11T12:29:20.271Z,99978.81
2022-08-11T12:34:25.071Z,99998.59
2022-08-11T12:40:15.644Z,100002.41
2022-08-11T12:45:28.853Z,99999.59
2022-08-11T12:50:50.371Z,100013.69
2022-08-11T12:56:13.662Z,100013.19
2022-08-11T13:01:35.868Z,100017.88
2022-08-11T13:06:39.068Z,100031.44
2022-08-11T13:12:00.836Z,100029.16
2022-08-11T13:17:40.457Z,100049.75
2022-08-11T13:22:50.731Z,100051.81
2022-08-11T13:27:56.629Z,100057.13
2022-08-11T13:33:05.273Z,100038.91
2022-08-11T13:38:19.418Z,100065.25
2022-08-11T13:43:24.066Z,100069.34
2022-08-11T13:48:28.503Z,100071.06
2022-08-11T13:53:33.802Z,100073.41
2022-08-11T13:58:39.961Z,100081.69
2022-08-11T14:04:31.313Z,100083.97
2022-08-11T14:09:12.668Z,100080.78
2022-08-11T14:14:22.021Z,100083.00
2022-08-11T14:19:26.836Z,100097.16
2022-08-11T14:24:34.516Z,100096.53
2022-08-11T14:29:46.313Z,100096.78
2022-08-11T14:34:51.854Z,100099.81
2022-08-11T14:40:02.866Z,100096.53
2022-08-11T14:45:57.524Z,100091.44
2022-08-11T14:50:51.683Z,100090.66
2022-08-11T14:56:13.689Z,100090.03
2022-08-11T15:01:35.094Z,100083.31
2022-08-11T15:06:38.122Z,100092.13
2022-08-11T15:12:00.196Z,100093.84
2022-08-11T15:17:09.386Z,100101.03
2022-08-11T15:22:30.460Z,100087.50
2022-08-11T15:27:52.805Z,100099.81
2022-08-11T15:33:14.759Z,100095.69
2022-08-11T15:38:19.055Z,100110.66
2022-08-11T15:43:57.790Z,100100.44
2022-08-11T15:49:04.285Z,100088.56
2022-08-11T15:54:13.808Z,100109.34
2022-08-11T15:59:41.959Z,100097.34
2022-08-11T16:04:47.854Z,100101.00
2022-08-11T16:09:54.145Z,100099.31
2022-08-11T16:15:26.434Z,100102.81
2022-08-11T16:20:30.024Z,100111.56
2022-08-11T16:27:01.743Z,100110.03
2022-08-11T16:30:59.908Z,100105.91
2022-08-11T16:36:23.019Z,100100.81
2022-08-11T16:41:48.047Z,100109.47
2022-08-11T16:47:00.540Z,100104.38
2022-08-11T16:52:05.765Z,100095.81
2022-08-11T16:57:50.981Z,100093.31
2022-08-11T17:03:13.032Z,100089.06
2022-08-11T17:08:39.149Z,100083.13
2022-08-11T17:13:52.823Z,100085.75
2022-08-11T17:19:00.468Z,100096.09
2022-08-11T17:24:14.688Z,100096.16
2022-08-11T17:29:54.064Z,100092.72
2022-08-11T17:35:22.040Z,100094.47
2022-08-11T17:40:26.861Z,100087.72
2022-08-11T17:46:02.102Z,100090.34
2022-08-11T17:51:13.673Z,100090.47
2022-08-11T17:56:35.227Z,100087.97
2022-08-11T18:01:39.711Z,100088.88
2022-08-11T18:06:44.556Z,100082.94
2022-08-11T18:12:11.732Z,100094.16
2022-08-11T18:17:33.782Z,100084.78
2022-08-11T18:23:00.717Z,100081.38
2022-08-11T18:28:24.601Z,100085.72
2022-08-11T18:34:07.038Z,100090.94
2022-08-11T18:39:31.889Z,100085.81
2022-08-11T18:44:54.540Z,100089.31
2022-08-11T18:50:18.135Z,100088.50
2022-08-11T18:55:50.927Z,100081.69
2022-08-11T19:01:15.591Z,100090.25
2022-08-11T19:06:40.758Z,100098.06
2022-08-11T19:12:04.811Z,100097.25
2022-08-11T19:17:44.216Z,100093.81
2022-08-11T19:23:07.812Z,100093.88
2022-08-11T19:28:28.833Z,100085.31
2022-08-11T19:34:00.356Z,100085.34
2022-08-11T19:39:32.955Z,100087.94
2022-08-11T19:44:54.626Z,100069.91
2022-08-11T19:50:20.163Z,100069.91
2022-08-11T19:55:46.411Z,100071.66
2022-08-11T20:01:08.093Z,100069.09
2022-08-11T20:06:31.250Z,100057.06
2022-08-11T20:11:59.559Z,100056.19
2022-08-11T20:17:22.165Z,100061.34
2022-08-11T20:22:48.488Z,100063.97
2022-08-11T20:28:11.175Z,100051.94
2022-08-11T20:33:32.703Z,100039.09
2022-08-11T20:38:54.262Z,100045.13
2022-08-11T20:44:18.514Z,100041.69
2022-08-11T20:49:48.689Z,100043.44
2022-08-11T20:55:18.955Z,100037.44
2022-08-11T21:00:47.631Z,100051.19
2022-08-11T21:06:11.077Z,100056.28
2022-08-11T21:11:34.635Z,100050.31
2022-08-11T21:16:56.630Z,100049.44
2022-08-11T21:22:20.392Z,100052.00
2022-08-11T21:27:51.603Z,100056.28
2022-08-11T21:33:13.700Z,100052.00
2022-08-11T21:38:36.435Z,100055.44
2022-08-11T21:43:59.357Z,100049.41
2022-08-11T21:49:21.299Z,100051.94
2022-08-11T21:54:43.975Z,100056.25
2022-08-11T22:00:15.366Z,100062.28
2022-08-11T22:05:38.284Z,100076.75
2022-08-11T22:10:59.751Z,100075.06
2022-08-11T22:16:21.322Z,100069.91
2022-08-11T22:22:01.585Z,100078.47
2022-08-11T22:27:25.058Z,100075.91
2022-08-11T22:32:46.384Z,100087.06
2022-08-11T22:38:08.275Z,100088.75
2022-08-11T22:43:29.716Z,100086.22
2022-08-11T22:48:51.767Z,100090.50
2022-08-11T22:54:13.287Z,100100.78
2022-08-11T22:59:35.762Z,100106.78
2022-08-11T23:04:58.117Z,100106.84
2022-08-11T23:10:19.124Z,100106.78
2022-08-11T23:15:41.043Z,100096.50
2022-08-11T23:21:04.996Z,100095.66
2022-08-11T23:26:26.676Z,100091.41
2022-08-11T23:31:53.476Z,100092.28
2022-08-11T23:37:15.011Z,100094.00
2022-08-11T23:42:36.316Z,100103.44
2022-08-11T23:47:58.500Z,100103.47
2022-08-11T23:53:20.808Z,100098.31
2022-08-11T23:58:42.414Z,100095.75
